createdAt,value
2018-02-19T00:00:17.703Z,3.04
2018-02-19T00:02:45.825Z,3.09
2018-02-19T00:05:13.968Z,3.02
2018-02-19T00:07:42.087Z,2.95
2018-02-19T00:10:10.208Z,3.23
2018-02-19T00:12:38.351Z,3.17
2018-02-19T00:15:06.489Z,3.07
2018-02-19T00:17:34.683Z,3.05
2018-02-19T00:20:02.802Z,2.86
2018-02-19T00:22:30.920Z,2.88
2018-02-19T00:24:59.092Z,3.00
2018-02-19T00:27:27.227Z,2.85
2018-02-19T00:29:55.404Z,2.90
2018-02-19T00:32:23.522Z,2.78
2018-02-19T00:34:51.635Z,2.82
2018-02-19T00:37:19.813Z,2.83
2018-02-19T00:39:47.934Z,2.85
2018-02-19T00:42:16.083Z,2.81
2018-02-19T00:44:44.221Z,2.90
2018-02-19T00:47:12.384Z,2.85
2018-02-19T00:49:40.573Z,3.07
2018-02-19T00:52:08.725Z,2.89
2018-02-19T00:54:36.905Z,2.83
2018-02-19T00:57:05.247Z,2.99
2018-02-19T00:59:33.389Z,2.95
2018-02-19T01:02:01.510Z,2.89
2018-02-19T01:04:29.624Z,2.89
2018-02-19T01:06:57.745Z,2.75
2018-02-19T01:09:25.861Z,2.69
2018-02-19T01:11:54.005Z,2.69
2018-02-19T01:14:22.115Z,2.75
2018-02-19T01:16:50.236Z,2.84
2018-02-19T01:19:18.367Z,2.74
2018-02-19T01:21:46.477Z,2.71
2018-02-19T01:24:14.599Z,2.70
2018-02-19T01:26:42.724Z,2.74
2018-02-19T01:29:10.837Z,2.71
2018-02-19T01:31:38.969Z,2.70
2018-02-19T01:34:07.087Z,2.66
2018-02-19T01:36:35.218Z,2.66
2018-02-19T01:39:03.355Z,2.59
2018-02-19T01:41:31.480Z,2.64
2018-02-19T01:43:59.583Z,2.67
2018-02-19T01:46:27.725Z,2.84
2018-02-19T01:48:55.835Z,2.80
2018-02-19T01:51:23.992Z,2.70
2018-02-19T01:53:52.092Z,2.65
2018-02-19T01:56:20.226Z,2.77
2018-02-19T01:58:48.347Z,2.55
2018-02-19T02:01:16.493Z,2.68
2018-02-19T02:03:44.636Z,2.83
2018-02-19T02:06:12.842Z,2.76
2018-02-19T02:08:41.230Z,2.93
2018-02-19T02:11:09.430Z,2.91
2018-02-19T02:13:37.568Z,2.75
2018-02-19T02:16:05.688Z,2.92
2018-02-19T02:18:33.814Z,2.74
2018-02-19T02:21:01.978Z,2.86
2018-02-19T02:23:30.096Z,2.91
2018-02-19T02:25:58.233Z,2.94
2018-02-19T02:28:26.361Z,2.98
2018-02-19T02:30:54.483Z,2.78
2018-02-19T02:33:22.611Z,2.90
2018-02-19T02:35:50.733Z,2.78
2018-02-19T02:38:18.847Z,2.85
2018-02-19T02:40:46.970Z,2.82
2018-02-19T02:43:15.103Z,2.88
2018-02-19T02:45:43.215Z,2.88
2018-02-19T02:48:11.350Z,2.85
2018-02-19T02:50:39.475Z,2.82
2018-02-19T02:53:07.599Z,2.84
2018-02-19T02:55:35.703Z,2.82
2018-02-19T02:58:03.834Z,2.89
2018-02-19T03:00:31.942Z,3.00
2018-02-19T03:03:00.100Z,2.93
2018-02-19T03:05:28.217Z,2.89
2018-02-19T03:07:56.318Z,2.81
2018-02-19T03:10:24.434Z,2.86
2018-02-19T03:12:52.619Z,2.99
2018-02-19T03:15:20.730Z,3.05
2018-02-19T03:17:48.858Z,3.08
2018-02-19T03:20:16.976Z,3.04
2018-02-19T03:22:45.084Z,3.03
2018-02-19T03:25:13.232Z,3.00
2018-02-19T03:27:41.343Z,3.01
2018-02-19T03:30:09.470Z,2.99
2018-02-19T03:32:37.580Z,2.97
2018-02-19T03:35:05.687Z,2.94
2018-02-19T03:37:33.802Z,2.93
2018-02-19T03:40:01.933Z,2.87
2018-02-19T03:42:30.044Z,2.91
2018-02-19T03:44:58.176Z,2.93
2018-02-19T03:47:26.282Z,2.78
2018-02-19T03:49:54.410Z,2.75
2018-02-19T03:52:22.512Z,2.65
2018-02-19T03:54:50.641Z,2.74
2018-02-19T03:57:18.764Z,2.75
2018-02-19T03:59:46.884Z,2.71
2018-02-19T04:02:15.010Z,2.86
2018-02-19T04:04:43.116Z,2.83
2018-02-19T04:07:12.107Z,2.69
2018-02-19T04:09:40.216Z,2.66
2018-02-19T04:12:08.341Z,2.66
2018-02-19T04:14:36.454Z,2.66
2018-02-19T04:17:04.566Z,2.78
2018-02-19T04:19:32.692Z,2.83
2018-02-19T04:22:00.831Z,2.79
2018-02-19T04:24:28.949Z,2.64
2018-02-19T04:26:57.092Z,2.63
2018-02-19T04:29:25.213Z,2.85
2018-02-19T04:31:53.363Z,2.75
2018-02-19T04:34:21.477Z,2.92
2018-02-19T04:36:49.586Z,2.86
2018-02-19T04:39:17.699Z,2.84
2018-02-19T04:41:45.842Z,2.80
2018-02-19T04:47:15.850Z,2.54
2018-02-19T04:49:43.970Z,2.80
2018-02-19T04:52:12.101Z,2.90
2018-02-19T04:54:40.216Z,2.83
2018-02-19T04:57:08.323Z,2.77
2018-02-19T04:59:36.439Z,2.95
2018-02-19T05:02:04.574Z,2.95
2018-02-19T05:04:32.744Z,2.91
2018-02-19T05:07:00.857Z,2.88
2018-02-19T05:09:29.005Z,2.98
2018-02-19T05:11:57.113Z,2.93
2018-02-19T05:14:25.250Z,2.93
2018-02-19T05:16:53.351Z,2.72
2018-02-19T05:19:21.501Z,2.65
2018-02-19T05:21:49.605Z,2.81
2018-02-19T05:24:17.733Z,2.70
2018-02-19T05:26:45.854Z,2.74
2018-02-19T05:29:13.970Z,2.77
2018-02-19T05:31:42.077Z,2.76
2018-02-19T05:34:10.213Z,2.94
2018-02-19T05:36:38.338Z,2.82
2018-02-19T05:39:06.452Z,2.80
2018-02-19T05:41:34.568Z,2.91
2018-02-19T05:44:02.705Z,2.98
2018-02-19T05:46:30.818Z,2.89
2018-02-19T05:48:58.946Z,2.79
2018-02-19T05:51:27.074Z,2.79
2018-02-19T05:53:55.319Z,2.83
2018-02-19T05:56:23.492Z,3.00
2018-02-19T05:58:51.591Z,2.86
2018-02-19T06:01:19.734Z,2.74
2018-02-19T06:03:47.844Z,2.83
2018-02-19T06:06:15.979Z,2.63
2018-02-19T06:08:44.147Z,2.59
2018-02-19T06:11:12.283Z,2.75
2018-02-19T06:13:40.407Z,2.82
2018-02-19T06:16:08.526Z,2.90
2018-02-19T06:18:36.685Z,2.69
2018-02-19T06:21:04.768Z,2.96
2018-02-19T06:23:36.711Z,3.00
2018-02-19T06:26:04.844Z,2.85
2018-02-19T06:28:32.959Z,2.80
2018-02-19T06:31:01.104Z,2.71
2018-02-19T06:33:29.226Z,2.74
2018-02-19T06:35:57.368Z,2.66
2018-02-19T06:38:25.825Z,2.78
2018-02-19T06:40:53.946Z,2.77
2018-02-19T06:43:22.111Z,2.59
2018-02-19T06:45:50.202Z,2.71
2018-02-19T06:48:18.349Z,2.83
2018-02-19T06:50:46.447Z,2.89
2018-02-19T06:53:14.577Z,2.98
2018-02-19T06:55:42.702Z,2.91
2018-02-19T06:58:10.825Z,2.77
2018-02-19T07:00:38.941Z,2.96
2018-02-19T07:03:07.073Z,2.82
2018-02-19T07:05:35.195Z,3.03
2018-02-19T07:08:03.671Z,3.08
2018-02-19T07:10:31.782Z,2.98
2018-02-19T07:12:59.913Z,3.15
2018-02-19T07:15:28.047Z,2.92
2018-02-19T07:17:56.203Z,3.09
2018-02-19T07:20:24.312Z,3.16
2018-02-19T07:22:56.091Z,3.05
2018-02-19T07:25:24.230Z,2.82
2018-02-19T07:27:55.701Z,2.89
2018-02-19T07:30:23.978Z,2.77
2018-02-19T07:32:52.079Z,2.72
2018-02-19T07:35:20.204Z,2.93
2018-02-19T07:37:48.348Z,2.95
2018-02-19T07:40:16.515Z,2.91
2018-02-19T07:42:44.624Z,2.85
2018-02-19T07:45:12.752Z,2.81
2018-02-19T07:47:41.264Z,2.98
2018-02-19T07:50:09.397Z,2.97
2018-02-19T07:52:37.527Z,3.01
2018-02-19T07:55:05.670Z,2.99
2018-02-19T07:57:33.785Z,3.10
2018-02-19T08:00:01.909Z,3.10
2018-02-19T08:02:30.034Z,3.25
2018-02-19T08:04:59.047Z,3.16
2018-02-19T08:07:27.184Z,2.87
2018-02-19T08:09:55.314Z,3.07
2018-02-19T08:12:23.440Z,3.15
2018-02-19T08:14:51.574Z,2.98
2018-02-19T08:17:19.670Z,3.19
2018-02-19T08:19:47.786Z,3.21
2018-02-19T08:22:15.917Z,3.19
2018-02-19T08:24:44.029Z,3.38
2018-02-19T08:27:12.171Z,3.10
2018-02-19T08:29:40.272Z,3.09
2018-02-19T08:32:08.395Z,3.13
2018-02-19T08:34:36.566Z,3.58
2018-02-19T08:37:04.703Z,3.37
2018-02-19T08:39:32.826Z,3.52
2018-02-19T08:42:00.949Z,3.85
2018-02-19T08:44:29.138Z,3.90
2018-02-19T08:46:57.271Z,3.76
2018-02-19T08:49:25.455Z,3.39
2018-02-19T08:51:53.626Z,3.47
2018-02-19T08:54:22.271Z,3.78
2018-02-19T08:56:50.482Z,3.70
2018-02-19T08:59:21.904Z,3.56
2018-02-19T09:01:53.396Z,3.62
2018-02-19T09:04:21.606Z,3.57
2018-02-19T09:06:49.761Z,3.79
2018-02-19T09:09:17.890Z,3.92
2018-02-19T09:11:49.399Z,3.70
2018-02-19T09:14:17.719Z,4.15
2018-02-19T09:16:46.161Z,4.44
2018-02-19T09:19:14.373Z,4.44
2018-02-19T09:21:42.508Z,4.29
2018-02-19T09:24:10.728Z,4.57
2018-02-19T09:26:38.841Z,4.69
2018-02-19T09:29:06.965Z,4.65
2018-02-19T09:31:35.086Z,4.91
2018-02-19T09:34:03.234Z,4.58
2018-02-19T09:36:31.367Z,4.64
2018-02-19T09:38:59.483Z,4.85
2018-02-19T09:41:27.667Z,4.85
2018-02-19T09:43:55.809Z,4.56
2018-02-19T09:46:23.920Z,4.60
2018-02-19T09:48:52.040Z,4.56
2018-02-19T09:51:20.164Z,4.78
2018-02-19T09:53:48.290Z,4.75
2018-02-19T09:56:16.424Z,4.79
2018-02-19T09:58:44.555Z,4.69
2018-02-19T10:01:12.678Z,4.75
2018-02-19T10:03:40.784Z,4.82
2018-02-19T10:06:08.923Z,4.72
2018-02-19T10:08:37.053Z,4.49
2018-02-19T10:11:05.190Z,4.62
2018-02-19T10:13:33.320Z,4.72
2018-02-19T10:16:01.449Z,4.80
2018-02-19T10:18:29.605Z,4.72
2018-02-19T10:20:57.751Z,4.78
2018-02-19T10:23:25.888Z,4.99
2018-02-19T10:25:57.042Z,5.07
2018-02-19T10:28:25.714Z,4.84
2018-02-19T10:30:53.854Z,4.88
2018-02-19T10:33:22.053Z,5.23
2018-02-19T10:35:50.173Z,5.29
2018-02-19T10:38:18.297Z,5.37
2018-02-19T10:40:46.472Z,5.56
2018-02-19T10:43:14.606Z,5.45
2018-02-19T10:45:42.734Z,5.39
2018-02-19T10:48:10.867Z,5.62
2018-02-19T10:50:38.995Z,5.27
2018-02-19T10:53:07.115Z,5.04
2018-02-19T10:55:35.224Z,5.46
2018-02-19T10:58:03.350Z,5.38
2018-02-19T11:00:37.317Z,5.56
2018-02-19T11:03:05.469Z,5.81
2018-02-19T11:05:33.572Z,5.67
2018-02-19T11:08:01.699Z,5.75
2018-02-19T11:10:29.809Z,5.83
2018-02-19T11:12:57.961Z,6.00
2018-02-19T11:15:26.099Z,5.89
2018-02-19T11:17:54.287Z,5.87
2018-02-19T11:20:22.424Z,6.11
2018-02-19T11:22:50.544Z,6.10
2018-02-19T11:25:18.668Z,6.21
2018-02-19T11:27:46.776Z,5.95
2018-02-19T11:30:14.952Z,6.18
2018-02-19T11:32:43.098Z,6.29
2018-02-19T11:35:11.227Z,5.99
2018-02-19T11:37:39.352Z,6.22
2018-02-19T11:40:07.470Z,6.47
2018-02-19T11:42:35.595Z,6.26
2018-02-19T11:45:03.724Z,6.31
2018-02-19T11:47:31.841Z,6.43
2018-02-19T11:49:59.978Z,6.35
2018-02-19T11:52:28.104Z,6.66
2018-02-19T11:54:56.252Z,6.30
2018-02-19T11:57:24.381Z,6.37
2018-02-19T11:59:52.549Z,6.44
2018-02-19T12:02:20.607Z,6.14
2018-02-19T12:04:48.749Z,6.40
2018-02-19T12:07:16.869Z,6.32
2018-02-19T12:09:45.001Z,6.59
2018-02-19T12:12:13.107Z,6.69
2018-02-19T12:14:41.255Z,6.48
2018-02-19T12:17:09.390Z,6.79
2018-02-19T12:19:37.519Z,6.74
2018-02-19T12:22:05.665Z,6.32
2018-02-19T12:24:33.796Z,6.68
2018-02-19T12:27:01.922Z,7.05
2018-02-19T12:29:30.034Z,6.65
2018-02-19T12:31:58.146Z,6.67
2018-02-19T12:34:26.322Z,6.76
2018-02-19T12:36:54.418Z,6.83
2018-02-19T12:39:22.555Z,6.98
2018-02-19T12:41:50.674Z,6.69
2018-02-19T12:44:18.820Z,6.80
2018-02-19T12:46:46.930Z,6.95
2018-02-19T12:49:15.090Z,6.77
2018-02-19T12:51:43.199Z,7.37
2018-02-19T12:54:11.333Z,7.21
2018-02-19T12:56:39.458Z,7.47
2018-02-19T12:59:07.571Z,7.38
2018-02-19T13:01:35.733Z,7.30
2018-02-19T13:04:03.849Z,6.82
2018-02-19T13:06:35.000Z,7.04
2018-02-19T13:09:03.146Z,7.23
2018-02-19T13:11:31.261Z,7.22
2018-02-19T13:13:59.366Z,6.91
2018-02-19T13:16:27.494Z,6.86
2018-02-19T13:18:55.626Z,6.79
2018-02-19T13:21:23.736Z,6.98
2018-02-19T13:23:51.858Z,6.76
2018-02-19T13:26:19.976Z,6.99
2018-02-19T13:28:48.099Z,6.98
2018-02-19T13:31:16.223Z,6.99
2018-02-19T13:33:44.379Z,7.10
2018-02-19T13:36:12.520Z,6.72
2018-02-19T13:38:40.626Z,6.91
2018-02-19T13:41:08.769Z,7.11
2018-02-19T13:43:47.726Z,7.06
2018-02-19T13:46:15.852Z,6.91
2018-02-19T13:48:44.004Z,7.13
2018-02-19T13:51:12.125Z,7.10
2018-02-19T13:53:40.252Z,7.37
2018-02-19T13:56:08.385Z,7.04
2018-02-19T13:58:36.519Z,6.78
2018-02-19T14:01:04.713Z,7.16
2018-02-19T14:03:32.858Z,7.28
2018-02-19T14:06:04.543Z,7.12
2018-02-19T14:08:32.675Z,7.32
2018-02-19T14:11:00.784Z,7.23
2018-02-19T14:13:28.899Z,7.25
2018-02-19T14:15:57.037Z,7.43
2018-02-19T14:18:25.767Z,7.48
2018-02-19T14:20:53.906Z,7.29
2018-02-19T14:23:22.029Z,7.17
2018-02-19T14:25:50.181Z,6.94
2018-02-19T14:28:18.324Z,7.29
2018-02-19T14:30:46.443Z,7.18
2018-02-19T14:33:14.847Z,7.21
2018-02-19T14:35:46.349Z,7.26
2018-02-19T14:38:14.513Z,7.29
2018-02-19T14:40:42.637Z,7.24
2018-02-19T14:43:10.770Z,7.21
2018-02-19T14:45:38.916Z,7.10
2018-02-19T14:48:07.021Z,7.33
2018-02-19T14:50:35.217Z,7.30
2018-02-19T14:53:03.350Z,7.26
2018-02-19T14:55:31.478Z,7.33
2018-02-19T14:57:59.596Z,7.97
2018-02-19T15:00:27.736Z,7.44
2018-02-19T15:02:55.868Z,7.40
2018-02-19T15:05:23.973Z,7.08
2018-02-19T15:07:52.110Z,7.32
2018-02-19T15:10:21.138Z,7.44
2018-02-19T15:12:49.270Z,7.35
2018-02-19T15:15:17.395Z,7.42
2018-02-19T15:17:45.531Z,7.50
2018-02-19T15:20:13.641Z,7.00
2018-02-19T15:22:41.801Z,7.24
2018-02-19T15:25:09.923Z,7.18
2018-02-19T15:27:38.042Z,7.34
2018-02-19T15:30:06.174Z,7.27
2018-02-19T15:32:34.321Z,7.18
2018-02-19T15:35:02.449Z,7.33
2018-02-19T15:37:30.561Z,7.36
2018-02-19T15:39:58.689Z,7.16
2018-02-19T15:42:26.834Z,7.23
2018-02-19T15:44:54.956Z,7.19
2018-02-19T15:47:23.082Z,7.17
2018-02-19T15:49:51.194Z,7.11
2018-02-19T15:52:19.333Z,7.04
2018-02-19T15:54:47.461Z,7.09
2018-02-19T15:57:15.583Z,7.10
2018-02-19T15:59:43.716Z,7.15
2018-02-19T16:02:11.838Z,7.03
2018-02-19T16:04:39.971Z,7.09
2018-02-19T16:07:08.084Z,7.08
2018-02-19T16:09:36.230Z,7.07
2018-02-19T16:12:04.376Z,6.96
2018-02-19T16:14:32.494Z,7.04
2018-02-19T16:17:00.596Z,6.88
2018-02-19T16:19:28.743Z,6.96
2018-02-19T16:21:56.880Z,6.94
2018-02-19T16:24:25.051Z,6.96
2018-02-19T16:26:53.209Z,6.93
2018-02-19T16:29:21.338Z,6.81
2018-02-19T16:31:50.357Z,6.80
2018-02-19T16:34:18.511Z,6.83
2018-02-19T16:36:46.626Z,6.82
2018-02-19T16:39:14.757Z,6.70
2018-02-19T16:41:42.883Z,6.74
2018-02-19T16:44:11.008Z,6.62
2018-02-19T16:46:39.132Z,6.63
2018-02-19T16:49:07.269Z,6.67
2018-02-19T16:51:35.728Z,6.63
2018-02-19T16:54:03.942Z,6.52
2018-02-19T16:56:32.057Z,6.60
2018-02-19T16:59:00.204Z,6.54
2018-02-19T17:01:28.337Z,6.54
2018-02-19T17:03:56.451Z,6.48
2018-02-19T17:06:24.569Z,6.74
2018-02-19T17:08:52.794Z,6.56
2018-02-19T17:11:20.894Z,6.52
2018-02-19T17:13:49.021Z,6.46
2018-02-19T17:16:17.139Z,6.45
2018-02-19T17:18:45.276Z,6.45
2018-02-19T17:21:13.420Z,6.45
2018-02-19T17:23:41.564Z,6.42
2018-02-19T17:26:09.656Z,6.41
2018-02-19T17:28:37.796Z,6.37
2018-02-19T17:31:05.911Z,6.36
2018-02-19T17:33:34.057Z,6.29
2018-02-19T17:36:02.182Z,6.30
2018-02-19T17:38:30.314Z,6.31
2018-02-19T17:40:58.441Z,6.27
2018-02-19T17:43:26.572Z,6.23
2018-02-19T17:45:54.681Z,6.19
2018-02-19T17:48:22.819Z,6.07
2018-02-19T17:50:51.083Z,6.20
2018-02-19T17:53:19.212Z,6.20
2018-02-19T17:55:47.333Z,6.20
2018-02-19T17:58:15.556Z,6.14
2018-02-19T18:00:43.678Z,6.07
2018-02-19T18:03:11.792Z,6.07
2018-02-19T18:05:39.918Z,6.00
2018-02-19T18:08:08.040Z,6.01
2018-02-19T18:10:36.149Z,5.97
2018-02-19T18:13:04.276Z,6.05
2018-02-19T18:15:32.387Z,6.03
2018-02-19T18:18:00.544Z,5.96
2018-02-19T18:20:28.660Z,5.93
2018-02-19T18:22:56.804Z,5.94
2018-02-19T18:25:24.947Z,5.94
2018-02-19T18:27:53.081Z,5.92
2018-02-19T18:30:21.232Z,5.90
2018-02-19T18:32:52.764Z,5.82
2018-02-19T18:35:20.982Z,5.84
2018-02-19T18:37:49.117Z,5.84
2018-02-19T18:40:17.248Z,6.00
2018-02-19T18:42:45.387Z,5.91
2018-02-19T18:45:13.488Z,5.88
2018-02-19T18:47:41.678Z,5.83
2018-02-19T18:50:09.808Z,5.76
2018-02-19T18:52:37.946Z,5.77
2018-02-19T18:55:06.071Z,5.78
2018-02-19T18:57:34.223Z,5.77
2018-02-19T19:00:02.358Z,5.76
2018-02-19T19:02:30.489Z,5.73
2018-02-19T19:04:58.618Z,5.74
2018-02-19T19:07:38.459Z,5.75
2018-02-19T19:13:08.727Z,5.73
2018-02-19T19:15:36.861Z,5.72
2018-02-19T19:18:04.951Z,5.67
2018-02-19T19:20:33.068Z,5.63
2018-02-19T19:23:01.185Z,5.60
2018-02-19T19:25:29.312Z,5.62
2018-02-19T19:27:57.441Z,5.61
2018-02-19T19:30:25.568Z,5.58
2018-02-19T19:32:53.695Z,5.58
2018-02-19T19:35:21.827Z,5.60
2018-02-19T19:37:49.953Z,5.62
2018-02-19T19:40:18.083Z,5.57
2018-02-19T19:42:46.200Z,5.55
2018-02-19T19:45:14.325Z,5.54
2018-02-19T19:47:42.451Z,5.51
2018-02-19T19:50:10.581Z,5.49
2018-02-19T19:52:38.716Z,5.51
2018-02-19T19:55:09.996Z,5.48
2018-02-19T19:57:38.326Z,5.43
2018-02-19T20:00:06.444Z,5.44
2018-02-19T20:02:34.583Z,5.48
2018-02-19T20:05:02.706Z,5.51
2018-02-19T20:07:30.831Z,5.53
2018-02-19T20:10:00.856Z,5.53
2018-02-19T20:12:29.335Z,5.53
2018-02-19T20:14:57.495Z,5.45
2018-02-19T20:17:25.624Z,5.46
2018-02-19T20:19:53.752Z,5.46
2018-02-19T20:22:25.153Z,5.45
2018-02-19T20:24:53.463Z,5.45
2018-02-19T20:27:21.605Z,5.44
2018-02-19T20:29:49.730Z,5.47
2018-02-19T20:32:17.852Z,5.45
2018-02-19T20:34:45.983Z,5.47
2018-02-19T20:37:14.109Z,5.47
2018-02-19T20:39:42.239Z,5.50
2018-02-19T20:42:10.358Z,5.49
2018-02-19T20:44:38.480Z,5.45
2018-02-19T20:47:06.603Z,5.39
2018-02-19T20:49:34.706Z,5.41
2018-02-19T20:52:02.825Z,5.43
2018-02-19T20:54:30.958Z,5.45
2018-02-19T20:56:59.080Z,5.46
2018-02-19T20:59:27.216Z,5.43
2018-02-19T21:01:55.329Z,5.37
2018-02-19T21:04:23.451Z,5.31
2018-02-19T21:06:51.573Z,5.33
2018-02-19T21:09:19.717Z,5.33
2018-02-19T21:11:47.837Z,5.33
2018-02-19T21:14:15.956Z,5.33
2018-02-19T21:16:44.075Z,5.32
2018-02-19T21:19:12.184Z,5.31
2018-02-19T21:21:40.326Z,5.31
2018-02-19T21:24:08.458Z,5.32
2018-02-19T21:26:36.575Z,5.32
2018-02-19T21:29:04.686Z,5.29
2018-02-19T21:31:32.824Z,5.22
2018-02-19T21:34:00.940Z,5.19
2018-02-19T21:36:29.064Z,5.17
2018-02-19T21:38:57.210Z,5.19
2018-02-19T21:41:25.299Z,5.17
2018-02-19T21:43:53.417Z,5.17
2018-02-19T21:46:21.531Z,5.16
2018-02-19T21:48:49.702Z,5.12
2018-02-19T21:51:17.768Z,5.12
2018-02-19T21:53:45.900Z,5.14
2018-02-19T21:56:14.033Z,5.13
2018-02-19T21:58:42.143Z,5.10
2018-02-19T22:01:10.443Z,5.06
2018-02-19T22:03:38.553Z,5.00
2018-02-19T22:06:06.691Z,4.96
2018-02-19T22:08:34.806Z,4.95
2018-02-19T22:11:02.938Z,4.95
2018-02-19T22:13:31.074Z,4.92
2018-02-19T22:15:59.203Z,4.94
2018-02-19T22:18:27.424Z,4.94
2018-02-19T22:20:55.556Z,4.89
2018-02-19T22:23:23.724Z,4.89
2018-02-19T22:25:51.825Z,4.87
2018-02-19T22:28:19.954Z,4.85
2018-02-19T22:30:48.099Z,4.82
2018-02-19T22:33:16.208Z,4.74
2018-02-19T22:35:44.312Z,4.69
2018-02-19T22:38:12.427Z,4.62
2018-02-19T22:40:40.562Z,4.55
2018-02-19T22:43:08.689Z,4.49
2018-02-19T22:45:36.800Z,4.44
2018-02-19T22:48:04.931Z,4.35
2018-02-19T22:50:33.078Z,4.21
2018-02-19T22:53:01.205Z,4.12
2018-02-19T22:55:35.587Z,4.06
2018-02-19T22:58:03.701Z,4.00
2018-02-19T23:00:31.833Z,3.97
2018-02-19T23:02:59.942Z,3.91
2018-02-19T23:05:28.060Z,3.89
2018-02-19T23:07:56.185Z,3.80
2018-02-19T23:10:24.311Z,3.74
2018-02-19T23:12:52.431Z,3.63
2018-02-19T23:15:20.545Z,3.59
2018-02-19T23:17:48.682Z,3.53
2018-02-19T23:20:16.803Z,3.56
2018-02-19T23:22:44.935Z,3.47
2018-02-19T23:25:13.057Z,3.37
2018-02-19T23:27:41.197Z,3.33
2018-02-19T23:47:36.509Z,3.04
2018-02-19T23:50:07.510Z,3.02
2018-02-19T23:52:35.716Z,2.99
2018-02-19T23:55:09.863Z,2.98
2018-02-19T23:57:38.851Z,2.98
